createdAt,value
2023-02-08T00:00:58.361Z,98.85
2023-02-08T00:01:58.297Z,98.47
2023-02-08T00:02:58.307Z,98.66
2023-02-08T00:03:58.209Z,98.38
2023-02-08T00:04:58.122Z,99.22
2023-02-08T00:05:58.078Z,99.04
2023-02-08T00:06:58.020Z,99.04
2023-02-08T00:07:57.938Z,98.85
2023-02-08T00:08:57.891Z,98.38
2023-02-08T00:09:57.820Z,98.38
2023-02-08T00:10:57.782Z,98.28
2023-02-08T00:11:57.695Z,98.10
2023-02-08T00:12:57.646Z,98.10
2023-02-08T00:13:57.601Z,98.94
2023-02-08T00:14:57.489Z,99.60
2023-02-08T00:15:57.471Z,99.51
2023-02-08T00:16:57.391Z,99.98
2023-02-08T00:17:57.321Z,99.70
2023-02-08T00:18:57.261Z,99.13
2023-02-08T00:19:57.219Z,99.13
2023-02-08T00:20:57.152Z,99.88
2023-02-08T00:21:57.103Z,99.79
2023-02-08T00:22:57.012Z,99.51
2023-02-08T00:23:56.952Z,99.99
2023-02-08T00:24:56.929Z,99.99
2023-02-08T00:25:56.844Z,99.99
2023-02-08T00:26:56.751Z,99.99
2023-02-08T00:27:56.728Z,99.98
2023-02-08T00:28:56.671Z,99.51
2023-02-08T00:29:56.592Z,99.32
2023-02-08T00:30:56.644Z,98.57
2023-02-08T00:31:56.547Z,99.22
2023-02-08T00:32:56.402Z,98.75
2023-02-08T00:33:56.373Z,98.85
2023-02-08T00:34:56.273Z,98.00
2023-02-08T00:35:56.223Z,98.28
2023-02-08T00:36:56.169Z,98.28
2023-02-08T00:37:56.140Z,97.91
2023-02-08T00:38:56.101Z,98.19
2023-02-08T00:39:55.971Z,98.57
2023-02-08T00:40:55.918Z,99.32
2023-02-08T00:41:55.841Z,98.38
2023-02-08T00:42:55.788Z,98.66
2023-02-08T00:43:55.729Z,98.10
2023-02-08T00:44:55.680Z,99.13
2023-02-08T00:45:55.605Z,98.38
2023-02-08T00:46:55.621Z,98.57
2023-02-08T00:47:55.473Z,98.75
2023-02-08T00:48:55.403Z,98.19
2023-02-08T00:49:55.384Z,98.57
2023-02-08T00:50:55.300Z,98.57
2023-02-08T00:51:55.227Z,98.38
2023-02-08T00:52:55.223Z,97.43
2023-02-08T00:53:55.138Z,96.11
2023-02-08T00:54:55.040Z,95.26
2023-02-08T00:55:55.011Z,95.64
2023-02-08T00:56:54.958Z,95.92
2023-02-08T00:57:54.849Z,95.26
2023-02-08T00:58:54.832Z,94.89
2023-02-08T00:59:54.757Z,95.17
2023-02-08T01:00:54.912Z,95.83
2023-02-08T01:01:54.670Z,96.20
2023-02-08T01:02:54.563Z,96.39
2023-02-08T01:03:54.500Z,96.68
2023-02-08T01:04:54.468Z,96.86
2023-02-08T01:05:54.375Z,97.43
2023-02-08T01:06:54.328Z,98.00
2023-02-08T01:07:54.261Z,98.28
2023-02-08T01:08:54.186Z,97.81
2023-02-08T01:09:54.143Z,97.43
2023-02-08T01:10:54.071Z,97.15
2023-02-08T01:11:54.000Z,96.86
2023-02-08T01:12:55.720Z,95.92
2023-02-08T01:13:53.907Z,95.26
2023-02-08T01:14:53.818Z,94.79
2023-02-08T01:15:53.786Z,94.51
2023-02-08T01:16:53.739Z,94.13
2023-02-08T01:17:53.635Z,93.47
2023-02-08T01:18:53.736Z,93.75
2023-02-08T01:19:53.534Z,93.94
2023-02-08T01:20:53.460Z,94.51
2023-02-08T01:21:53.442Z,94.32
2023-02-08T01:22:53.308Z,93.84
2023-02-08T01:23:53.255Z,94.13
2023-02-08T01:24:53.242Z,94.22
2023-02-08T01:25:53.144Z,93.75
2023-02-08T01:26:53.087Z,93.47
2023-02-08T01:27:53.066Z,93.56
2023-02-08T01:28:52.956Z,93.56
2023-02-08T01:29:52.941Z,93.47
2023-02-08T01:30:52.908Z,93.09
2023-02-08T01:31:52.778Z,92.99
2023-02-08T01:32:52.734Z,93.09
2023-02-08T01:33:52.643Z,92.52
2023-02-08T01:34:52.639Z,92.43
2023-02-08T01:35:52.545Z,92.61
2023-02-08T01:36:52.507Z,91.67
2023-02-08T01:37:52.396Z,91.86
2023-02-08T01:38:52.335Z,91.58
2023-02-08T01:39:52.322Z,90.82
2023-02-08T01:40:52.240Z,90.26
2023-02-08T01:41:52.162Z,90.92
2023-02-08T01:42:52.103Z,91.67
2023-02-08T01:43:52.036Z,91.96
2023-02-08T01:44:51.982Z,91.11
2023-02-08T01:45:51.968Z,90.73
2023-02-08T01:46:51.860Z,89.78
2023-02-08T01:47:51.790Z,89.69
2023-02-08T01:48:51.734Z,89.03
2023-02-08T01:49:51.668Z,89.31
2023-02-08T01:50:51.666Z,89.22
2023-02-08T01:51:51.551Z,88.65
2023-02-08T01:52:51.469Z,89.12
2023-02-08T01:53:51.421Z,89.40
2023-02-08T01:54:51.356Z,89.31
2023-02-08T01:55:51.323Z,90.07
2023-02-08T01:56:51.274Z,90.73
2023-02-08T01:57:51.183Z,91.20
2023-02-08T01:58:51.126Z,90.92
2023-02-08T01:59:51.061Z,90.92
2023-02-08T02:00:51.033Z,91.01
2023-02-08T02:01:50.969Z,91.01
2023-02-08T02:02:50.881Z,90.07
2023-02-08T02:03:50.802Z,89.22
2023-02-08T02:04:50.727Z,88.65
2023-02-08T02:05:50.696Z,89.12
2023-02-08T02:06:50.626Z,89.03
2023-02-08T02:07:50.554Z,89.12
2023-02-08T02:08:50.519Z,88.93
2023-02-08T02:09:50.429Z,88.98
2023-02-08T02:10:50.429Z,88.23
2023-02-08T02:11:50.366Z,88.65
2023-02-08T02:12:50.268Z,89.97
2023-02-08T02:13:50.226Z,90.54
2023-02-08T02:14:50.189Z,90.97
2023-02-08T02:15:50.085Z,91.16
2023-02-08T02:16:50.028Z,92.19
2023-02-08T02:17:49.974Z,92.85
2023-02-08T02:18:49.898Z,92.57
2023-02-08T02:19:49.853Z,92.38
2023-02-08T02:20:49.779Z,92.66
2023-02-08T02:21:49.749Z,92.19
2023-02-08T02:22:49.676Z,91.91
2023-02-08T02:23:49.582Z,91.91
2023-02-08T02:24:49.530Z,92.10
2023-02-08T02:25:49.472Z,92.29
2023-02-08T02:26:49.396Z,93.04
2023-02-08T02:27:49.358Z,93.51
2023-02-08T02:28:49.307Z,94.18
2023-02-08T02:29:49.218Z,94.46
2023-02-08T02:30:49.214Z,94.55
2023-02-08T02:31:49.173Z,94.93
2023-02-08T02:32:49.034Z,95.12
2023-02-08T02:33:48.980Z,94.65
2023-02-08T02:34:48.881Z,94.36
2023-02-08T02:35:48.835Z,94.55
2023-02-08T02:36:48.788Z,94.65
2023-02-08T02:37:48.752Z,95.03
2023-02-08T02:38:48.773Z,95.21
2023-02-08T02:39:48.680Z,94.84
2023-02-08T02:40:48.544Z,93.89
2023-02-08T02:41:48.474Z,93.80
2023-02-08T02:42:48.405Z,92.95
2023-02-08T02:43:48.350Z,92.95
2023-02-08T02:44:48.316Z,93.61
2023-02-08T02:45:48.247Z,93.42
2023-02-08T02:46:48.206Z,94.18
2023-02-08T02:47:48.102Z,95.31
2023-02-08T02:48:48.034Z,95.31
2023-02-08T02:49:48.020Z,94.84
2023-02-08T02:50:47.971Z,94.36
2023-02-08T02:51:47.850Z,94.36
2023-02-08T02:52:47.889Z,94.84
2023-02-08T02:53:47.771Z,94.84
2023-02-08T02:54:47.752Z,95.03
2023-02-08T02:55:47.657Z,94.93
2023-02-08T02:56:47.538Z,94.65
2023-02-08T02:57:47.529Z,94.74
2023-02-08T02:58:47.422Z,94.08
2023-02-08T02:59:47.369Z,93.99
2023-02-08T03:00:47.335Z,93.89
2023-02-08T03:01:47.245Z,94.55
2023-02-08T03:02:47.186Z,94.93
2023-02-08T03:03:47.109Z,95.12
2023-02-08T03:04:47.069Z,95.21
2023-02-08T03:05:47.004Z,94.65
2023-02-08T03:06:46.947Z,94.93
2023-02-08T03:07:46.863Z,93.99
2023-02-08T03:08:46.867Z,93.13
2023-02-08T03:09:46.781Z,93.42
2023-02-08T03:10:46.708Z,93.23
2023-02-08T03:11:46.627Z,92.29
2023-02-08T03:12:46.565Z,91.82
2023-02-08T03:13:46.557Z,92.00
2023-02-08T03:14:46.430Z,92.66
2023-02-08T03:15:46.428Z,92.76
2023-02-08T03:16:46.446Z,93.13
2023-02-08T03:17:46.279Z,92.95
2023-02-08T03:18:46.215Z,92.95
2023-02-08T03:19:46.142Z,92.76
2023-02-08T03:20:46.066Z,93.23
2023-02-08T03:21:46.002Z,92.85
2023-02-08T03:22:45.944Z,93.04
2023-02-08T03:23:45.985Z,92.95
2023-02-08T03:24:45.809Z,92.47
2023-02-08T03:25:45.793Z,92.38
2023-02-08T03:26:45.686Z,91.91
2023-02-08T03:27:45.628Z,91.82
2023-02-08T03:28:45.584Z,91.35
2023-02-08T03:29:45.541Z,91.16
2023-02-08T03:30:45.552Z,90.68
2023-02-08T03:31:45.466Z,89.36
2023-02-08T03:32:45.339Z,89.55
2023-02-08T03:33:45.262Z,89.64
2023-02-08T03:34:45.223Z,90.40
2023-02-08T03:35:45.151Z,90.50
2023-02-08T03:36:45.068Z,90.21
2023-02-08T03:37:45.020Z,90.02
2023-02-08T03:38:44.953Z,89.36
2023-02-08T03:39:44.940Z,89.27
2023-02-08T03:40:44.908Z,87.85
2023-02-08T03:41:44.782Z,87.38
2023-02-08T03:42:44.696Z,86.63
2023-02-08T03:43:44.632Z,86.82
2023-02-08T03:44:44.604Z,87.57
2023-02-08T03:45:44.541Z,87.95
2023-02-08T03:46:44.448Z,87.85
2023-02-08T03:47:44.402Z,88.04
2023-02-08T03:48:44.400Z,88.79
2023-02-08T03:49:44.271Z,89.45
2023-02-08T03:50:44.220Z,89.55
2023-02-08T03:51:44.184Z,89.45
2023-02-08T03:52:44.087Z,89.64
2023-02-08T03:53:44.059Z,89.45
2023-02-08T03:54:44.007Z,89.55
2023-02-08T03:55:43.926Z,89.36
2023-02-08T03:56:43.835Z,89.64
2023-02-08T03:57:43.775Z,89.74
2023-02-08T03:58:43.753Z,90.21
2023-02-08T03:59:43.653Z,90.12
2023-02-08T04:00:43.616Z,90.68
2023-02-08T04:01:43.559Z,90.68
2023-02-08T04:02:43.481Z,90.50
2023-02-08T04:03:43.430Z,90.50
2023-02-08T04:04:43.311Z,90.40
2023-02-08T04:05:43.294Z,90.21
2023-02-08T04:06:43.232Z,89.45
2023-02-08T04:07:43.150Z,88.98
2023-02-08T04:08:43.079Z,88.98
2023-02-08T04:09:43.617Z,89.27
2023-02-08T04:10:43.250Z,88.70
2023-02-08T04:11:42.946Z,88.56
2023-02-08T04:12:42.828Z,88.37
2023-02-08T04:13:42.813Z,87.90
2023-02-08T04:14:42.749Z,87.62
2023-02-08T04:15:42.736Z,88.09
2023-02-08T04:16:42.585Z,88.65
2023-02-08T04:17:42.538Z,88.46
2023-02-08T04:18:42.487Z,88.65
2023-02-08T04:19:42.420Z,88.93
2023-02-08T04:20:42.542Z,88.09
2023-02-08T04:21:42.268Z,88.65
2023-02-08T04:22:42.222Z,88.65
2023-02-08T04:23:42.168Z,88.28
2023-02-08T04:24:42.113Z,87.80
2023-02-08T04:25:42.018Z,88.37
2023-02-08T04:26:41.968Z,88.56
2023-02-08T04:27:41.949Z,87.80
2023-02-08T04:28:41.839Z,87.80
2023-02-08T04:29:41.826Z,87.52
2023-02-08T04:30:42.118Z,86.67
2023-02-08T04:31:41.792Z,86.86
2023-02-08T04:32:41.653Z,87.52
2023-02-08T04:33:41.550Z,87.71
2023-02-08T04:34:41.465Z,88.18
2023-02-08T04:35:41.432Z,87.33
2023-02-08T04:36:41.381Z,86.76
2023-02-08T04:37:41.448Z,87.90
2023-02-08T04:38:41.246Z,88.09
2023-02-08T04:39:41.194Z,88.84
2023-02-08T04:40:41.367Z,89.97
2023-02-08T04:41:41.053Z,90.45
2023-02-08T04:42:40.979Z,90.64
2023-02-08T04:43:40.931Z,90.54
2023-02-08T04:44:40.862Z,90.35
2023-02-08T04:45:40.814Z,91.11
2023-02-08T04:46:40.815Z,91.20
2023-02-08T04:47:40.693Z,91.49
2023-02-08T04:48:40.633Z,91.58
2023-02-08T04:49:40.556Z,91.11
2023-02-08T04:50:40.811Z,90.82
2023-02-08T04:51:40.421Z,90.73
2023-02-08T04:52:40.374Z,91.11
2023-02-08T04:53:40.337Z,89.78
2023-02-08T04:54:40.978Z,89.88
2023-02-08T04:55:40.192Z,89.78
2023-02-08T04:56:40.106Z,89.88
2023-02-08T04:57:40.070Z,90.26
2023-02-08T04:58:40.016Z,90.16
2023-02-08T04:59:39.941Z,90.82
2023-02-08T05:00:40.315Z,90.92
2023-02-08T05:01:39.882Z,91.01
2023-02-08T05:02:39.767Z,91.01
2023-02-08T05:03:39.724Z,90.87
2023-02-08T05:04:39.609Z,91.01
2023-02-08T05:05:39.548Z,90.92
2023-02-08T05:06:39.508Z,91.16
2023-02-08T05:07:39.410Z,91.44
2023-02-08T05:08:39.357Z,90.78
2023-02-08T05:09:39.316Z,90.21
2023-02-08T05:10:39.604Z,90.50
2023-02-08T05:11:39.159Z,90.40
2023-02-08T05:12:39.103Z,89.74
2023-02-08T05:13:39.049Z,89.45
2023-02-08T05:14:39.014Z,89.08
2023-02-08T05:15:38.946Z,88.75
2023-02-08T05:16:38.882Z,88.84
2023-02-08T05:17:38.807Z,89.50
2023-02-08T05:18:38.721Z,89.40
2023-02-08T05:19:38.706Z,89.03
2023-02-08T05:20:38.829Z,88.56
2023-02-08T05:21:38.552Z,89.31
2023-02-08T05:22:38.485Z,89.59
2023-02-08T05:23:38.442Z,90.35
2023-02-08T05:24:38.377Z,90.82
2023-02-08T05:25:38.317Z,91.30
2023-02-08T05:26:38.229Z,91.30
2023-02-08T05:27:38.157Z,91.96
2023-02-08T05:28:38.112Z,91.96
2023-02-08T05:29:38.073Z,92.10
2023-02-08T05:30:38.127Z,92.76
2023-02-08T05:31:38.001Z,92.66
2023-02-08T05:32:37.851Z,93.13
2023-02-08T05:33:37.809Z,93.42
2023-02-08T05:34:37.757Z,93.80
2023-02-08T05:35:37.648Z,93.89
2023-02-08T05:36:37.612Z,94.36
2023-02-08T05:37:37.534Z,93.89
2023-02-08T05:38:37.485Z,94.84
2023-02-08T05:39:37.453Z,94.84
2023-02-08T05:40:37.348Z,94.36
2023-02-08T05:41:37.274Z,94.27
2023-02-08T05:42:37.225Z,93.89
2023-02-08T05:43:37.229Z,95.21
2023-02-08T05:44:37.335Z,93.99
2023-02-08T05:45:37.066Z,94.65
2023-02-08T05:46:38.354Z,94.65
2023-02-08T05:47:37.156Z,94.18
2023-02-08T05:48:36.966Z,94.18
2023-02-08T05:49:37.031Z,94.36
2023-02-08T05:50:36.719Z,93.99
2023-02-08T05:51:36.690Z,94.36
2023-02-08T05:52:36.614Z,94.46
2023-02-08T05:53:36.563Z,94.36
2023-02-08T05:54:36.490Z,94.46
2023-02-08T05:55:36.485Z,93.51
2023-02-08T05:56:36.378Z,94.27
2023-02-08T05:57:36.313Z,94.27
2023-02-08T05:58:36.262Z,93.51
2023-02-08T05:59:36.256Z,92.47
2023-02-08T06:00:36.133Z,92.85
2023-02-08T06:01:36.084Z,94.08
2023-02-08T06:02:36.011Z,94.27
2023-02-08T06:03:35.984Z,94.36
2023-02-08T06:04:38.681Z,94.36
2023-02-08T06:05:35.834Z,94.36
2023-02-08T06:06:35.760Z,94.27
2023-02-08T06:07:35.707Z,94.27
2023-02-08T06:08:35.637Z,93.89
2023-02-08T06:09:35.802Z,94.84
2023-02-08T06:10:35.511Z,94.74
2023-02-08T06:11:35.467Z,94.65
2023-02-08T06:12:35.365Z,94.65
2023-02-08T06:13:35.381Z,94.65
2023-02-08T06:14:35.256Z,94.84
2023-02-08T06:15:35.210Z,94.84
2023-02-08T06:16:35.202Z,94.55
2023-02-08T06:17:35.121Z,94.08
2023-02-08T06:18:35.207Z,94.27
2023-02-08T06:19:35.052Z,93.61
2023-02-08T06:20:34.954Z,93.89
2023-02-08T06:21:34.805Z,93.80
2023-02-08T06:22:34.784Z,95.03
2023-02-08T06:23:34.712Z,95.03
2023-02-08T06:24:34.715Z,95.21
2023-02-08T06:25:34.564Z,96.06
2023-02-08T06:26:34.563Z,96.72
2023-02-08T06:27:34.489Z,97.76
2023-02-08T06:28:34.403Z,97.95
2023-02-08T06:29:34.354Z,98.14
2023-02-08T06:30:34.289Z,98.23
2023-02-08T06:31:34.246Z,98.14
2023-02-08T06:32:34.197Z,98.04
2023-02-08T06:33:34.102Z,98.04
2023-02-08T06:34:34.009Z,98.42
2023-02-08T06:35:33.971Z,98.61
2023-02-08T06:36:33.895Z,98.71
2023-02-08T06:37:33.914Z,99.08
2023-02-08T06:38:33.776Z,99.27
2023-02-08T06:39:33.714Z,99.74
2023-02-08T06:40:33.663Z,99.93
2023-02-08T06:41:33.610Z,99.93
2023-02-08T06:42:33.534Z,99.99
2023-02-08T06:43:33.456Z,99.99
2023-02-08T06:44:33.386Z,99.99
2023-02-08T06:45:33.390Z,99.99
2023-02-08T06:46:33.301Z,99.99
2023-02-08T06:47:33.189Z,99.99
2023-02-08T06:48:33.151Z,99.99
2023-02-08T06:49:33.072Z,99.99
2023-02-08T06:50:33.033Z,99.99
2023-02-08T06:51:32.979Z,99.99
2023-02-08T06:52:32.935Z,99.99
2023-02-08T06:53:32.843Z,99.99
2023-02-08T06:54:32.822Z,99.99
2023-02-08T06:55:32.704Z,99.88
2023-02-08T06:56:32.676Z,99.98
2023-02-08T06:57:32.622Z,99.79
2023-02-08T06:58:32.556Z,99.60
2023-02-08T06:59:32.465Z,99.98
2023-02-08T07:00:32.399Z,99.99
2023-02-08T07:01:32.419Z,99.99
2023-02-08T07:02:32.341Z,99.99
2023-02-08T07:03:32.251Z,99.99
2023-02-08T07:04:32.142Z,99.99
2023-02-08T07:05:32.080Z,99.99
2023-02-08T07:06:32.018Z,99.99
2023-02-08T07:07:32.003Z,99.99
2023-02-08T07:08:31.910Z,99.98
2023-02-08T07:09:31.835Z,99.99
2023-02-08T07:10:31.767Z,99.99
2023-02-08T07:11:31.713Z,99.99
2023-02-08T07:12:31.691Z,99.99
2023-02-08T07:13:31.589Z,99.99
2023-02-08T07:14:31.535Z,99.99
2023-02-08T07:15:31.476Z,99.99
2023-02-08T07:16:31.471Z,99.99
2023-02-08T07:17:31.341Z,99.99
2023-02-08T07:18:31.308Z,99.99
2023-02-08T07:19:31.222Z,99.99
2023-02-08T07:20:31.136Z,99.99
2023-02-08T07:21:31.078Z,99.99
2023-02-08T07:22:31.027Z,99.99
2023-02-08T07:23:30.971Z,99.99
2023-02-08T07:24:30.879Z,99.99
2023-02-08T07:25:30.841Z,99.99
2023-02-08T07:26:30.772Z,99.99
2023-02-08T07:27:30.708Z,99.99
2023-02-08T07:28:30.686Z,99.99
2023-02-08T07:29:30.665Z,99.88
2023-02-08T07:30:30.646Z,98.66
2023-02-08T07:31:30.610Z,96.73
2023-02-08T07:32:30.802Z,95.17
2023-02-08T07:33:30.364Z,92.29
2023-02-08T07:34:30.318Z,89.64
2023-02-08T07:35:30.224Z,86.94
2023-02-08T07:36:30.200Z,85.61
2023-02-08T07:37:30.108Z,84.71
2023-02-08T07:38:30.084Z,82.95
2023-02-08T07:39:29.979Z,82.29
2023-02-08T07:40:29.934Z,80.77
2023-02-08T07:41:29.933Z,78.64
2023-02-08T07:42:29.800Z,77.97
2023-02-08T07:43:29.755Z,76.65
2023-02-08T07:44:29.709Z,76.21
2023-02-08T07:45:29.679Z,74.98
2023-02-08T07:46:29.608Z,74.26
2023-02-08T07:47:29.549Z,73.72
2023-02-08T07:48:29.522Z,73.63
2023-02-08T07:49:29.456Z,72.15
2023-02-08T07:50:29.428Z,72.28
2023-02-08T07:51:29.369Z,70.86
2023-02-08T07:52:29.287Z,69.94
2023-02-08T07:53:29.251Z,69.85
2023-02-08T07:54:29.229Z,68.80
2023-02-08T07:55:29.122Z,67.94
2023-02-08T07:56:29.078Z,67.85
2023-02-08T07:57:29.032Z,68.17
2023-02-08T07:58:29.002Z,67.73
2023-02-08T07:59:28.962Z,65.45
2023-02-08T08:00:28.896Z,65.06
2023-02-08T08:01:28.852Z,64.21
2023-02-08T08:02:28.761Z,63.92
2023-02-08T08:03:28.754Z,64.34
2023-02-08T08:04:28.718Z,64.34
2023-02-08T08:05:28.637Z,63.39
2023-02-08T08:06:28.592Z,63.80
2023-02-08T08:07:28.543Z,62.94
2023-02-08T08:08:28.461Z,61.93
2023-02-08T08:09:28.489Z,62.21
2023-02-08T08:10:28.410Z,61.19
2023-02-08T08:11:28.366Z,60.24
2023-02-08T08:12:28.320Z,60.81
2023-02-08T08:13:28.276Z,59.48
2023-02-08T08:14:28.244Z,58.91
2023-02-08T08:15:28.151Z,58.08
2023-02-08T08:16:28.178Z,59.01
2023-02-08T08:17:29.925Z,59.58
2023-02-08T08:18:28.049Z,61.10
2023-02-08T08:19:28.020Z,61.80
2023-02-08T08:20:27.950Z,61.13
2023-02-08T08:21:27.916Z,60.40
2023-02-08T08:22:27.851Z,59.86
2023-02-08T08:23:27.815Z,59.22
2023-02-08T08:24:27.787Z,57.89
2023-02-08T08:25:27.767Z,56.77
2023-02-08T08:26:27.690Z,55.55
2023-02-08T08:27:27.633Z,54.79
2023-02-08T08:28:27.773Z,54.26
2023-02-08T08:29:27.558Z,54.77
2023-02-08T08:30:27.546Z,56.01
2023-02-08T08:31:27.531Z,55.43
2023-02-08T08:32:27.433Z,55.46
2023-02-08T08:33:27.379Z,55.94
2023-02-08T08:34:27.345Z,55.58
2023-02-08T08:35:27.317Z,55.42
2023-02-08T08:36:27.226Z,54.85
2023-02-08T08:37:27.222Z,54.39
2023-02-08T08:38:27.172Z,53.92
2023-02-08T08:39:27.122Z,53.34
2023-02-08T08:40:27.122Z,52.89
2023-02-08T08:41:27.053Z,51.27
2023-02-08T08:42:27.039Z,50.29
2023-02-08T08:43:26.965Z,50.26
2023-02-08T08:44:26.927Z,50.84
2023-02-08T08:45:26.874Z,48.83
2023-02-08T08:46:26.888Z,47.47
2023-02-08T08:47:26.825Z,45.25
2023-02-08T08:48:26.724Z,44.84
2023-02-08T08:49:26.685Z,44.44
2023-02-08T08:50:26.709Z,44.15
2023-02-08T08:51:26.638Z,45.28
2023-02-08T08:52:26.578Z,46.34
2023-02-08T08:53:26.550Z,45.65
2023-02-08T08:54:26.519Z,46.25
2023-02-08T08:55:26.497Z,45.65
2023-02-08T08:56:26.438Z,45.75
2023-02-08T08:57:26.360Z,45.56
2023-02-08T08:58:26.367Z,45.28
2023-02-08T08:59:26.310Z,44.59
2023-02-08T09:00:26.269Z,44.26
2023-02-08T09:01:26.304Z,45.09
2023-02-08T09:02:26.176Z,46.42
2023-02-08T09:03:26.193Z,47.49
2023-02-08T09:04:26.125Z,47.30
2023-02-08T09:05:26.036Z,47.39
2023-02-08T09:06:26.028Z,47.11
2023-02-08T09:07:25.980Z,47.78
2023-02-08T09:08:25.952Z,47.11
2023-02-08T09:09:25.918Z,46.63
2023-02-08T09:10:25.883Z,46.47
2023-02-08T09:11:25.812Z,46.37
2023-02-08T09:12:25.774Z,46.15
2023-02-08T09:13:25.721Z,46.06
2023-02-08T09:14:25.708Z,46.68
2023-02-08T09:15:25.612Z,47.25
2023-02-08T09:16:25.673Z,46.39
2023-02-08T09:17:25.517Z,45.56
2023-02-08T09:18:25.527Z,45.15
2023-02-08T09:19:25.454Z,44.73
2023-02-08T09:20:25.422Z,45.30
2023-02-08T09:21:25.413Z,46.44
2023-02-08T09:22:25.315Z,45.56
2023-02-08T09:23:25.310Z,45.47
2023-02-08T09:24:25.249Z,46.44
2023-02-08T09:25:25.199Z,46.25
2023-02-08T09:26:25.185Z,47.04
2023-02-08T09:27:25.128Z,46.47
2023-02-08T09:28:25.112Z,45.70
2023-02-08T09:29:25.022Z,44.64
2023-02-08T09:30:24.987Z,45.11
2023-02-08T09:31:25.106Z,45.97
2023-02-08T09:32:24.875Z,45.59
2023-02-08T09:33:24.882Z,45.37
2023-02-08T09:34:24.813Z,45.97
2023-02-08T09:35:24.778Z,46.56
2023-02-08T09:36:24.735Z,47.06
2023-02-08T09:37:24.665Z,45.54
2023-02-08T09:38:24.667Z,46.39
2023-02-08T09:39:24.599Z,46.23
2023-02-08T09:40:24.558Z,45.58
2023-02-08T09:41:24.532Z,45.92
2023-02-08T09:42:24.506Z,44.48
2023-02-08T09:43:24.435Z,43.22
2023-02-08T09:44:24.376Z,43.41
2023-02-08T09:45:24.332Z,42.82
2023-02-08T09:46:24.386Z,44.17
2023-02-08T09:47:24.267Z,43.72
2023-02-08T09:48:24.228Z,43.46
2023-02-08T09:49:24.171Z,42.21
2023-02-08T09:50:24.133Z,42.11
2023-02-08T09:51:24.100Z,41.93
2023-02-08T09:52:24.044Z,40.97
2023-02-08T09:53:24.061Z,41.14
2023-02-08T09:54:23.957Z,42.40
2023-02-08T09:55:23.905Z,42.14
2023-02-08T09:56:23.922Z,41.56
2023-02-08T09:57:23.840Z,41.66
2023-02-08T09:58:23.801Z,41.56
2023-02-08T09:59:23.734Z,41.56
2023-02-08T10:00:23.701Z,41.38
2023-02-08T10:01:23.658Z,40.59
2023-02-08T10:02:23.599Z,41.06
2023-02-08T10:03:23.599Z,41.64
2023-02-08T10:04:23.529Z,41.16
2023-02-08T10:05:23.488Z,41.71
2023-02-08T10:06:23.451Z,42.67
2023-02-08T10:07:23.369Z,43.26
2023-02-08T10:08:31.525Z,42.02
2023-02-08T10:09:23.311Z,41.91
2023-02-08T10:10:23.297Z,42.88
2023-02-08T10:11:23.242Z,42.02
2023-02-08T10:12:23.166Z,41.93
2023-02-08T10:13:33.067Z,41.22
2023-02-08T10:14:23.082Z,41.77
2023-02-08T10:15:23.073Z,42.72
2023-02-08T10:16:23.028Z,43.37
2023-02-08T10:17:22.969Z,43.77
2023-02-08T10:18:22.982Z,44.34
2023-02-08T10:19:22.873Z,44.17
2023-02-08T10:20:22.837Z,43.20
2023-02-08T10:21:22.811Z,42.91
2023-02-08T10:22:22.733Z,42.89
2023-02-08T10:23:22.749Z,43.25
2023-02-08T10:24:22.648Z,44.18
2023-02-08T10:25:22.609Z,44.46
2023-02-08T10:26:22.556Z,44.66
2023-02-08T10:27:22.546Z,44.27
2023-02-08T10:28:22.587Z,45.83
2023-02-08T10:29:22.465Z,45.04
2023-02-08T10:30:22.418Z,44.37
2023-02-08T10:31:22.502Z,43.97
2023-02-08T10:32:22.264Z,43.87
2023-02-08T10:33:22.266Z,44.75
2023-02-08T10:34:22.186Z,44.85
2023-02-08T10:35:22.150Z,45.14
2023-02-08T10:36:22.090Z,45.23
2023-02-08T10:37:22.031Z,45.01
2023-02-08T10:38:22.011Z,45.80
2023-02-08T10:39:21.939Z,44.85
2023-02-08T10:40:21.879Z,44.27
2023-02-08T10:41:21.887Z,43.97
2023-02-08T10:42:21.811Z,44.13
2023-02-08T10:43:21.760Z,43.07
2023-02-08T10:44:21.704Z,43.73
2023-02-08T10:45:24.514Z,43.52
2023-02-08T10:46:21.613Z,43.35
2023-02-08T10:47:21.567Z,44.02
2023-02-08T10:48:21.493Z,42.57
2023-02-08T10:49:21.464Z,42.95
2023-02-08T10:50:21.449Z,43.16
2023-02-08T10:51:21.400Z,43.95
2023-02-08T10:52:21.303Z,44.13
2023-02-08T10:53:21.248Z,43.19
2023-02-08T10:54:21.192Z,43.11
2023-02-08T10:55:21.154Z,43.21
2023-02-08T10:56:21.128Z,43.23
2023-02-08T10:57:21.075Z,44.42
2023-02-08T10:58:21.027Z,42.80
2023-02-08T10:59:20.953Z,41.27
2023-02-08T11:00:20.884Z,40.60
2023-02-08T11:01:20.905Z,39.73
2023-02-08T11:02:20.834Z,39.23
2023-02-08T11:03:20.719Z,39.51
2023-02-08T11:04:20.771Z,39.04
2023-02-08T11:05:20.660Z,39.40
2023-02-08T11:06:20.604Z,39.31
2023-02-08T11:07:20.536Z,41.23
2023-02-08T11:08:20.532Z,40.73
2023-02-08T11:09:20.435Z,40.16
2023-02-08T11:10:20.437Z,39.00
2023-02-08T11:11:20.361Z,39.65
2023-02-08T11:12:20.263Z,39.62
2023-02-08T11:13:20.263Z,40.41
2023-02-08T11:14:20.193Z,41.64
2023-02-08T11:15:20.132Z,41.74
2023-02-08T11:16:20.127Z,41.55
2023-02-08T11:17:20.034Z,40.86
2023-02-08T11:18:20.007Z,41.91
2023-02-08T11:19:19.925Z,41.81
2023-02-08T11:20:19.878Z,41.98
2023-02-08T11:21:19.852Z,41.41
2023-02-08T11:22:19.765Z,42.08
2023-02-08T11:23:19.712Z,42.27
2023-02-08T11:24:19.649Z,41.79
2023-02-08T11:25:19.643Z,44.19
2023-02-08T11:26:19.593Z,44.19
2023-02-08T11:27:19.528Z,43.69
2023-02-08T11:28:19.516Z,44.83
2023-02-08T11:29:19.401Z,45.50
2023-02-08T11:30:19.350Z,45.12
2023-02-08T11:31:19.348Z,45.90
2023-02-08T11:32:19.239Z,46.00
2023-02-08T11:33:19.151Z,44.35
2023-02-08T11:34:19.140Z,44.54
2023-02-08T11:35:19.077Z,45.31
2023-02-08T11:36:19.040Z,46.66
2023-02-08T11:37:18.966Z,47.16
2023-02-08T11:38:18.931Z,46.92
2023-02-08T11:39:18.867Z,45.18
2023-02-08T11:40:18.807Z,43.85
2023-02-08T11:41:18.771Z,43.16
2023-02-08T11:42:18.710Z,43.83
2023-02-08T11:43:18.646Z,43.26
2023-02-08T11:44:18.592Z,42.10
2023-02-08T11:45:18.542Z,42.83
2023-02-08T11:46:18.480Z,42.53
2023-02-08T11:47:20.536Z,44.05
2023-02-08T11:48:18.397Z,45.00
2023-02-08T11:49:18.340Z,45.59
2023-02-08T11:50:18.292Z,45.78
2023-02-08T11:51:18.236Z,46.92
2023-02-08T11:52:18.156Z,47.02
2023-02-08T11:53:18.097Z,47.04
2023-02-08T11:54:18.077Z,47.80
2023-02-08T11:55:18.003Z,47.73
2023-02-08T11:56:17.992Z,48.11
2023-02-08T11:57:17.898Z,48.13
2023-02-08T11:58:17.844Z,47.85
2023-02-08T11:59:17.809Z,47.09
2023-02-08T12:00:17.701Z,46.42
2023-02-08T12:01:17.678Z,45.45
2023-02-08T12:02:17.699Z,45.90
2023-02-08T12:03:17.575Z,46.28
2023-02-08T12:04:17.515Z,46.88
2023-02-08T12:05:17.504Z,49.06
2023-02-08T12:06:17.414Z,48.13
2023-02-08T12:07:17.359Z,47.82
2023-02-08T12:08:17.330Z,48.30
2023-02-08T12:09:17.225Z,48.80
2023-02-08T12:10:17.193Z,47.92
2023-02-08T12:11:17.150Z,46.94
2023-02-08T12:12:17.129Z,47.80
2023-02-08T12:13:17.054Z,48.85
2023-02-08T12:14:16.992Z,48.85
2023-02-08T12:15:16.954Z,49.13
2023-02-08T12:16:16.907Z,50.96
2023-02-08T12:17:16.824Z,51.06
2023-02-08T12:18:16.750Z,49.89
2023-02-08T12:19:16.716Z,49.70
2023-02-08T12:20:16.666Z,48.91
2023-02-08T12:21:16.616Z,49.68
2023-02-08T12:22:16.561Z,49.58
2023-02-08T12:23:16.506Z,50.05
2023-02-08T12:24:16.477Z,51.10
2023-02-08T12:25:16.387Z,50.81
2023-02-08T12:26:16.348Z,52.62
2023-02-08T12:27:17.289Z,53.50
2023-02-08T12:28:16.274Z,53.12
2023-02-08T12:29:16.205Z,53.24
2023-02-08T12:30:16.089Z,52.01
2023-02-08T12:31:16.243Z,51.56
2023-02-08T12:32:16.022Z,52.32
2023-02-08T12:33:17.192Z,51.78
2023-02-08T12:34:15.940Z,50.42
2023-02-08T12:35:18.733Z,49.08
2023-02-08T12:36:15.850Z,49.56
2023-02-08T12:37:15.753Z,51.18
2023-02-08T12:38:15.684Z,51.56
2023-02-08T12:39:21.186Z,52.13
2023-02-08T12:40:15.589Z,52.80
2023-02-08T12:41:15.587Z,51.37
2023-02-08T12:42:15.520Z,53.11
2023-02-08T12:43:15.428Z,53.67
2023-02-08T12:44:15.367Z,53.23
2023-02-08T12:45:17.472Z,52.72
2023-02-08T12:46:15.281Z,51.20
2023-02-08T12:47:15.205Z,51.39
2023-02-08T12:48:15.119Z,51.46
2023-02-08T12:49:15.098Z,52.92
2023-02-08T12:50:15.057Z,53.67
2023-02-08T12:51:14.993Z,53.70
2023-02-08T12:52:14.950Z,53.42